CheckWX is a tool to help pilots better visualize weather data.  It is not intended as a substitute for an official pre-flight weather briefing.

19:15:41 UTC

EDDN METAR
Nuremberg Airport
Nuremberg, Germany
Current

26 mins ago

EDDN 261850Z 30004KT CAVOK 19/10 Q1013 NOSIG
Observed
May-26 @ 18:50 UTC
Wind
  • 300° at 4 KTS
Visibility
10,000+ meters
Flight Rules
VFR
Cloud Levels
  • Clear skies
Temperature
19°C / 66°F
Dewpoint
10°C / 50°F
Humidity
56%
Altimeter
29.91" Hg
Pressure
1012.92 hPa
Previous

56 mins ago

EDDN 261820Z 30008KT CAVOK 19/09 Q1013 NOSIG
Observed
May-26 @ 18:20 UTC
Wind
  • 300° at 8 KTS
Visibility
10,000+ meters
Flight Rules
VFR
Cloud Levels
  • Clear skies
Temperature
19°C / 66°F
Dewpoint
C / 48°F
Humidity
52%
Altimeter
29.91" Hg
Pressure
1012.92 hPa
Previous

1 hour ago

EDDN 261750Z 30010KT CAVOK 20/09 Q1013 NOSIG
Observed
May-26 @ 17:50 UTC
Wind
  • 300° at 10 KTS
Visibility
10,000+ meters
Flight Rules
VFR
Cloud Levels
  • Clear skies
Temperature
20°C / 68°F
Dewpoint
C / 48°F
Humidity
49%
Altimeter
29.91" Hg
Pressure
1012.92 hPa